Αναφορές Αεροδρομίων

 

KSJC - San Jose, California, USA
Distance from station: ΒΑ 14km
Ενημερώθηκε: 01/02/2023 13:53
Αίθριος
Αίθριος
 Ανεμος από calm
Ανεμος: Απνοια
Θερμοκρασία: 4°C
Σημείο Δρόσου: -4°C
Υγρασία: 56%
Βαρόμετρο: 1022 hPa
Clouds: Αίθριος
Visibility: 16 km
2023/02/01 11:53 KSJC 011153Z AUTO 00000KT 10SM CLR 04/M04 A3018 RMK AO2 SLP220 T00391044 10072 20022 58001
KNUQ - Moffett Nas/Mtn, California, USA
Distance from station: Β 14km
Ενημερώθηκε: 01/02/2023 13:55
Συννεφιά
Συννεφιά
 Ανεμος από calm
Ανεμος: Απνοια
Θερμοκρασία: 3°C
Σημείο Δρόσου: -3°C
Υγρασία: 65%
Βαρόμετρο: 1022 hPa
Clouds: Συννεφιά
Visibility: 16 km
Cloud details: Συννεφιά 1280 m
2023/02/01 11:55 KNUQ 011155Z AUTO 00000KT 10SM OVC042 03/M03 A3018 RMK AO2
 
KPAO - Palo Alto, California, USA
Distance from station: ΒΒΔ 23km
Ενημερώθηκε: 01/02/2023 04:47
NOT Current
Αίθριος
Αίθριος
 Ανεμος από Δ
Ανεμος: Δ 9 km/h
Θερμοκρασία: 7°C
Wind Chill: 6°C
Σημείο Δρόσου: -2°C
Υγρασία: 53%
Βαρόμετρο: 1021.7 hPa
Clouds: Αίθριος
Visibility: 16 km
2023/02/01 02:47 KPAO 010247Z 28005KT 10SM SKC 07/M02 A3017
KRHV - San Jose/Reid, California, USA
Distance from station: ΑΒΑ 19km
Ενημερώθηκε: 01/02/2023 07:55
NOT Current
Αίθριος
Αίθριος
 Ανεμος από calm
Ανεμος: Απνοια
Θερμοκρασία: 6°C
Σημείο Δρόσου: -3°C
Υγρασία: 53%
Βαρόμετρο: 1022.7 hPa
Clouds: Αίθριος
Visibility: 16 km
2023/02/01 05:55 KRHV 010555Z 00000KT 10SM SKC 06/M03 A3020 RMK LAST
 
KOAK - Oakland, California, USA
Distance from station: ΒΒΔ 50km
Ενημερώθηκε: 01/02/2023 13:53
Few Clouds
Few Clouds
 Ανεμος από ΑΒΑ
Ανεμος: ΑΒΑ 6 km/h
Θερμοκρασία: 3°C
Σημείο Δρόσου: -2°C
Υγρασία: 70%
Βαρόμετρο: 1022.4 hPa
Clouds: Few Clouds
Visibility: 16 km
Cloud details: Few Clouds 5486 m
Few Clouds 7620 m
2023/02/01 11:53 KOAK 011153Z 06003KT 10SM FEW180 FEW250 03/M02 A3019 RMK AO2 SLP222 T00281022 10078 20022 58002
KSQL - San Carlos Airpo, California, USA
Distance from station: ΒΔ 34km
Ενημερώθηκε: 01/02/2023 13:55
Αίθριος
Αίθριος
 Ανεμος από calm
Ανεμος: Απνοια
Θερμοκρασία: 3°C
Σημείο Δρόσου: -2°C
Υγρασία: 70%
Βαρόμετρο: 1022.4 hPa
Clouds: Αίθριος
Visibility: 16 km
2023/02/01 11:55 KSQL 011155Z AUTO 00000KT 10SM CLR 03/M02 A3019 RMK AO2
 
KSFO - San Francisco, California, USA
Distance from station: ΒΔ 49km
Ενημερώθηκε: 01/02/2023 13:56
Αίθριος
Αίθριος
 Ανεμος από calm
Ανεμος: Απνοια
Θερμοκρασία: 4°C
Σημείο Δρόσου: -1°C
Υγρασία: 70%
Βαρόμετρο: 1022 hPa
Clouds: Αίθριος
Visibility: 16 km
2023/02/01 11:56 KSFO 011156Z 00000KT 10SM CLR 04/M01 A3018 RMK AO2 SLP220 T00441011 10089 20044 58001
KE16 - San Martin, California, USA
Distance from station: ΑΝΑ 43km
Ενημερώθηκε: 01/02/2023 13:55
Αίθριος
Αίθριος
 Ανεμος από calm
Ανεμος: Απνοια
Θερμοκρασία: 0°C
Σημείο Δρόσου: -3°C
Υγρασία: 80%
Βαρόμετρο: 1023 hPa
Clouds: Αίθριος
Visibility: 16 km
2023/02/01 11:55 KE16 011155Z AUTO 00000KT 10SM CLR 00/M03 A3021 RMK AO2 PWINO PNO
 
KWVI - Watsonville, California, USA
Distance from station: ΝΝΑ 44km
Ενημερώθηκε: 01/02/2023 13:53
Αίθριος
Αίθριος
 Ανεμος από calm
Ανεμος: Απνοια
Θερμοκρασία: 2°C
Σημείο Δρόσου: -3°C
Υγρασία: 70%
Βαρόμετρο: 1022 hPa
Clouds: Αίθριος
Visibility: 16 km
2023/02/01 11:53 KWVI 011153Z AUTO 00000KT 10SM CLR 02/M03 A3018 RMK AO2 SLP219 T00221028 10044 21006 58003
KHAF - Half Moon Bay, California, USA
Distance from station: ΔΒΔ 50km
Ενημερώθηκε: 01/02/2023 13:55
Σχεδόν νεφελώδης
Σχεδόν νεφελώδης
 Ανεμος από calm
Ανεμος: Απνοια
Θερμοκρασία: 1°C
Σημείο Δρόσου: -4°C
Υγρασία: 70%
Βαρόμετρο: 1021.7 hPa
Clouds: Σχεδόν νεφελώδης
Visibility: 16 km
Cloud details: Σχεδόν νεφελώδης 1219 m
2023/02/01 11:55 KHAF 011155Z AUTO 00000KT 10SM BKN040 01/M04 A3017 RMK AO2
 
KHWD - Hayward, California, USA
Distance from station: Β 44km
Ενημερώθηκε: 01/02/2023 13:54
Αίθριος
Αίθριος
 Ανεμος από ΑΒΑ
Ανεμος: ΑΒΑ 6 km/h
Θερμοκρασία: 3°C
Σημείο Δρόσου: -3°C
Υγρασία: 65%
Βαρόμετρο: 1022 hPa
Clouds: Αίθριος
Visibility: 16 km
2023/02/01 11:54 KHWD 011154Z AUTO 07003KT 10SM CLR 03/M03 A3018 RMK AO2 SLP229 T00331033 10067 20033 58000
KLVK - Livermore, California, USA
Distance from station: ΒΒΑ 51km
Ενημερώθηκε: 01/02/2023 13:53
Αίθριος
Αίθριος
 Ανεμος από calm
Ανεμος: Απνοια
Θερμοκρασία: 1°C
Σημείο Δρόσου: -4°C
Υγρασία: 70%
Βαρόμετρο: 1022 hPa
Clouds: Αίθριος
Visibility: 16 km
2023/02/01 11:53 KLVK 011153Z AUTO 00000KT 10SM CLR 01/M04 A3018 RMK AO2 SLP221 T00061039 10039 21006 50000